createdAt,value
2023-12-04T00:00:47.652Z,13.93
2023-12-04T00:03:14.002Z,15.65
2023-12-04T00:05:43.603Z,14.93
2023-12-04T00:08:09.985Z,14.48
2023-12-04T00:10:36.398Z,18.02
2023-12-04T00:13:02.859Z,17.38
2023-12-04T00:15:29.300Z,16.17
2023-12-04T00:17:56.184Z,13.70
2023-12-04T00:20:22.622Z,15.98
2023-12-04T00:22:49.125Z,14.25
2023-12-04T00:25:15.488Z,15.70
2023-12-04T00:27:41.955Z,20.00
2023-12-04T00:30:08.920Z,17.75
2023-12-04T00:32:35.288Z,16.10
2023-12-04T00:35:01.933Z,20.58
2023-12-04T00:37:28.324Z,13.70
2023-12-04T00:39:54.725Z,19.98
2023-12-04T00:42:21.189Z,15.45
2023-12-04T00:44:47.608Z,17.67
2023-12-04T00:47:14.057Z,15.18
2023-12-04T00:49:40.595Z,13.57
2023-12-04T00:52:07.050Z,16.25
2023-12-04T00:54:33.560Z,13.93
2023-12-04T00:57:00.112Z,19.50
2023-12-04T00:59:26.498Z,15.73
2023-12-04T01:01:52.877Z,18.17
2023-12-04T01:04:19.353Z,19.52
2023-12-04T01:06:45.768Z,17.88
2023-12-04T01:09:12.155Z,16.55
2023-12-04T01:11:38.581Z,13.98
2023-12-04T01:14:05.032Z,13.60
2023-12-04T01:16:31.509Z,12.23
2023-12-04T01:18:58.176Z,13.45
2023-12-04T01:21:24.605Z,15.43
2023-12-04T01:23:51.847Z,14.13
2023-12-04T01:26:18.227Z,11.98
2023-12-04T01:28:44.702Z,14.27
2023-12-04T01:31:11.060Z,13.13
2023-12-04T01:33:37.565Z,16.77
2023-12-04T01:36:05.388Z,17.63
2023-12-04T01:38:31.765Z,15.02
2023-12-04T01:40:58.103Z,14.23
2023-12-04T01:43:24.546Z,19.23
2023-12-04T01:45:53.216Z,15.73
2023-12-04T01:48:20.339Z,12.40
2023-12-04T01:50:46.860Z,11.07
2023-12-04T01:53:13.295Z,15.55
2023-12-04T01:55:40.053Z,12.27
2023-12-04T01:58:06.924Z,12.95
2023-12-04T02:00:33.746Z,14.10
2023-12-04T02:03:00.753Z,13.38
2023-12-04T02:05:30.326Z,10.85
2023-12-04T02:07:57.227Z,15.88
2023-12-04T02:10:23.769Z,11.55
2023-12-04T02:12:53.324Z,12.65
2023-12-04T02:15:19.837Z,13.35
2023-12-04T02:17:46.802Z,18.85
2023-12-04T02:20:16.238Z,14.95
2023-12-04T02:22:42.609Z,14.23
2023-12-04T02:25:21.356Z,16.40
2023-12-04T02:27:59.801Z,13.00
2023-12-04T02:30:29.708Z,16.63
2023-12-04T02:32:58.136Z,15.20
2023-12-04T02:37:54.336Z,13.27
2023-12-04T02:40:21.136Z,12.38
2023-12-04T02:42:47.624Z,18.13
2023-12-04T02:45:14.117Z,11.30
2023-12-04T02:47:40.512Z,11.85
2023-12-04T02:50:07.616Z,19.65
2023-12-04T02:52:34.064Z,15.98
2023-12-04T02:55:00.503Z,14.98
2023-12-04T02:57:26.932Z,16.83
2023-12-04T02:59:54.224Z,17.17
2023-12-04T03:02:20.585Z,15.20
2023-12-04T03:04:47.407Z,16.27
2023-12-04T03:07:13.850Z,12.45
2023-12-04T03:09:48.462Z,14.10
2023-12-04T03:12:16.463Z,16.05
2023-12-04T03:14:42.916Z,19.30
2023-12-04T03:17:09.338Z,19.95
2023-12-04T03:19:36.011Z,13.57
2023-12-04T03:22:03.062Z,13.63
2023-12-04T03:24:29.478Z,19.35
2023-12-04T03:26:57.245Z,14.27
2023-12-04T03:29:23.645Z,11.18
2023-12-04T03:31:50.004Z,14.57
2023-12-04T03:34:16.690Z,14.20
2023-12-04T03:36:43.092Z,18.38
2023-12-04T03:39:09.622Z,13.05
2023-12-04T03:41:35.995Z,16.30
2023-12-04T03:44:03.252Z,14.55
2023-12-04T03:46:29.654Z,14.38
2023-12-04T03:48:56.715Z,14.75
2023-12-04T03:51:23.127Z,14.40
2023-12-04T03:53:49.525Z,14.35
2023-12-04T03:56:15.883Z,15.10
2023-12-04T03:58:42.242Z,19.70
2023-12-04T04:01:08.656Z,10.70
2023-12-04T04:03:35.190Z,16.17
2023-12-04T04:06:01.702Z,18.08
2023-12-04T04:08:28.122Z,16.55
2023-12-04T04:10:54.687Z,13.48
2023-12-04T04:13:21.126Z,12.38
2023-12-04T04:15:47.633Z,15.00
2023-12-04T04:18:14.129Z,15.48
2023-12-04T04:20:40.539Z,14.40
2023-12-04T04:23:06.878Z,9.13
2023-12-04T04:25:33.229Z,13.82
2023-12-04T04:27:59.667Z,10.48
2023-12-04T04:30:26.017Z,16.70
2023-12-04T04:32:52.491Z,12.43
2023-12-04T04:35:18.843Z,10.75
2023-12-04T04:37:46.454Z,11.55
2023-12-04T04:40:13.764Z,16.05
2023-12-04T04:42:40.210Z,17.42
2023-12-04T04:45:07.060Z,11.82
2023-12-04T04:47:36.446Z,12.60
2023-12-04T04:50:03.931Z,12.95
2023-12-04T04:52:32.037Z,23.13
2023-12-04T04:54:59.494Z,14.18
2023-12-04T04:57:25.922Z,14.10
2023-12-04T04:59:52.301Z,15.18
2023-12-04T05:02:18.756Z,18.15
2023-12-04T05:04:45.284Z,11.82
2023-12-04T05:07:13.211Z,16.02
2023-12-04T05:09:39.598Z,12.05
2023-12-04T05:12:06.439Z,14.65
2023-12-04T05:14:32.843Z,11.07
2023-12-04T05:16:59.235Z,15.57
2023-12-04T05:19:25.773Z,15.30
2023-12-04T05:21:52.286Z,17.42
2023-12-04T05:24:18.698Z,15.82
2023-12-04T05:26:45.081Z,14.15
2023-12-04T05:29:11.420Z,12.77
2023-12-04T05:31:37.787Z,16.08
2023-12-04T05:34:04.479Z,12.43
2023-12-04T05:36:30.947Z,11.88
2023-12-04T05:38:59.275Z,13.48
2023-12-04T05:41:27.216Z,14.13
2023-12-04T05:43:53.648Z,15.25
2023-12-04T05:46:19.990Z,13.95
2023-12-04T05:48:46.466Z,14.70
2023-12-04T05:51:12.855Z,13.50
2023-12-04T05:53:39.405Z,15.60
2023-12-04T05:56:06.549Z,11.30
2023-12-04T05:58:32.915Z,10.48
2023-12-04T06:00:59.312Z,14.65
2023-12-04T06:03:26.804Z,13.23
2023-12-04T06:05:56.760Z,15.13
2023-12-04T06:08:24.225Z,13.52
2023-12-04T06:10:50.601Z,13.75
2023-12-04T06:13:17.000Z,15.50
2023-12-04T06:15:43.507Z,16.58
2023-12-04T06:18:10.024Z,16.27
2023-12-04T06:20:36.412Z,14.63
2023-12-04T06:23:02.996Z,16.88
2023-12-04T06:25:29.863Z,15.93
2023-12-04T06:27:56.666Z,12.63
2023-12-04T06:30:23.392Z,13.80
2023-12-04T06:32:49.976Z,14.65
2023-12-04T06:35:20.257Z,14.68
2023-12-04T06:37:49.596Z,16.25
2023-12-04T06:40:16.548Z,17.20
2023-12-04T06:42:43.228Z,13.13
2023-12-04T06:45:10.171Z,17.95
2023-12-04T06:47:38.105Z,21.25
2023-12-04T06:50:04.996Z,18.48
2023-12-04T06:52:31.344Z,23.55
2023-12-04T06:54:57.802Z,9.55
2023-12-04T06:57:24.194Z,15.38
2023-12-04T06:59:50.809Z,16.90
2023-12-04T07:02:17.203Z,18.90
2023-12-04T07:04:43.626Z,18.02
2023-12-04T07:07:10.121Z,13.73
2023-12-04T07:09:36.975Z,14.15
2023-12-04T07:12:03.616Z,12.15
2023-12-04T07:14:30.060Z,15.70
2023-12-04T07:16:57.755Z,17.13
2023-12-04T07:19:24.341Z,13.57
2023-12-04T07:21:50.749Z,16.80
2023-12-04T07:24:17.139Z,13.02
2023-12-04T07:26:43.499Z,13.55
2023-12-04T07:29:09.870Z,23.13
2023-12-04T07:31:36.544Z,27.80
2023-12-04T07:34:02.999Z,19.90
2023-12-04T07:36:30.267Z,20.33
2023-12-04T07:38:56.620Z,30.92
2023-12-04T07:41:23.009Z,23.92
2023-12-04T07:43:49.547Z,22.55
2023-12-04T07:46:15.973Z,21.55
2023-12-04T07:48:43.211Z,18.05
2023-12-04T07:51:10.369Z,14.63
2023-12-04T07:53:36.780Z,16.30
2023-12-04T07:56:03.637Z,19.75
2023-12-04T07:58:30.599Z,17.33
2023-12-04T08:00:56.961Z,18.02
2023-12-04T08:03:23.354Z,16.33
2023-12-04T08:05:49.731Z,16.10
2023-12-04T08:08:16.635Z,17.42
2023-12-04T08:10:43.095Z,17.17
2023-12-04T08:13:09.558Z,13.75
2023-12-04T08:15:35.954Z,12.57
2023-12-04T08:18:02.404Z,12.25
2023-12-04T08:20:36.449Z,18.73
2023-12-04T08:23:06.505Z,12.55
2023-12-04T08:25:33.104Z,14.50
2023-12-04T08:27:59.964Z,14.45
2023-12-04T08:30:26.463Z,15.55
2023-12-04T08:32:53.096Z,16.27
2023-12-04T08:35:19.709Z,10.93
2023-12-04T08:37:46.171Z,15.77
2023-12-04T08:40:12.892Z,17.15
2023-12-04T08:42:39.357Z,15.68
2023-12-04T08:45:06.457Z,14.82
2023-12-04T08:47:33.069Z,14.70
2023-12-04T08:50:01.221Z,16.90
2023-12-04T08:54:53.978Z,17.40
2023-12-04T08:57:20.437Z,13.20
2023-12-04T08:59:46.772Z,13.05
2023-12-04T09:02:15.006Z,15.50
2023-12-04T09:04:41.894Z,13.80
2023-12-04T09:09:37.847Z,16.65
2023-12-04T09:12:05.056Z,12.10
2023-12-04T09:14:31.421Z,14.07
2023-12-04T09:16:58.540Z,13.32
2023-12-04T09:19:25.495Z,11.68
2023-12-04T09:21:59.745Z,11.52
2023-12-04T09:24:35.071Z,12.98
2023-12-04T09:27:01.545Z,9.20
2023-12-04T09:29:28.357Z,10.43
2023-12-04T09:31:54.826Z,9.70
2023-12-04T09:34:21.495Z,11.50
2023-12-04T09:39:16.526Z,8.02
2023-12-04T09:41:44.735Z,11.43
2023-12-04T09:44:11.192Z,10.43
2023-12-04T09:46:38.515Z,10.90
2023-12-04T09:49:05.901Z,10.55
2023-12-04T09:51:32.669Z,9.60
2023-12-04T09:54:03.805Z,10.05
2023-12-04T09:56:30.613Z,10.40
2023-12-04T09:59:01.191Z,10.00
2023-12-04T10:01:30.346Z,10.32
2023-12-04T10:04:00.599Z,10.45
2023-12-04T10:06:28.424Z,12.70
2023-12-04T10:08:58.898Z,11.32
2023-12-04T10:11:26.058Z,11.57
2023-12-04T10:13:58.363Z,13.82
2023-12-04T10:19:19.290Z,10.63
2023-12-04T10:21:47.124Z,10.05
2023-12-04T10:26:51.281Z,11.65
2023-12-04T10:29:18.036Z,10.30
2023-12-04T10:31:44.616Z,8.82
2023-12-04T10:34:11.253Z,10.63
2023-12-04T10:36:39.121Z,10.38
2023-12-04T10:39:05.664Z,9.65
2023-12-04T10:41:32.736Z,10.43
2023-12-04T10:44:04.444Z,8.55
2023-12-04T10:46:39.925Z,8.15
2023-12-04T10:49:07.150Z,8.95
2023-12-04T10:51:34.503Z,7.88
2023-12-04T10:54:00.973Z,10.70
2023-12-04T10:56:37.140Z,7.20
2023-12-04T10:59:07.014Z,7.13
2023-12-04T11:01:33.969Z,8.55
2023-12-04T11:04:05.820Z,11.88
2023-12-04T11:06:33.734Z,9.48
2023-12-04T11:11:31.048Z,8.20
2023-12-04T11:14:02.597Z,11.13
2023-12-04T11:16:35.923Z,8.75
2023-12-04T11:19:15.141Z,9.85
2023-12-04T11:21:42.829Z,8.02
2023-12-04T11:24:09.483Z,6.75
2023-12-04T11:26:36.892Z,8.95
2023-12-04T11:29:04.491Z,9.73
2023-12-04T11:31:31.241Z,7.97
2023-12-04T11:34:03.973Z,10.95
2023-12-04T11:36:30.907Z,7.93
2023-12-04T11:38:57.331Z,15.10
2023-12-04T11:41:27.077Z,7.57
2023-12-04T11:43:57.597Z,9.60
2023-12-04T11:46:26.334Z,8.18
2023-12-04T11:49:16.763Z,7.60
2023-12-04T11:51:43.288Z,7.25
2023-12-04T11:54:11.175Z,8.32
2023-12-04T11:56:37.568Z,6.07
2023-12-04T11:59:07.022Z,7.55
2023-12-04T12:01:38.076Z,6.82
2023-12-04T12:04:08.378Z,7.45
2023-12-04T12:06:35.228Z,8.48
2023-12-04T12:09:01.896Z,7.70
2023-12-04T12:11:28.760Z,10.82
2023-12-04T12:13:55.262Z,9.65
2023-12-04T12:16:22.706Z,6.97
2023-12-04T12:21:16.320Z,6.50
2023-12-04T12:23:42.833Z,7.00
2023-12-04T12:26:09.336Z,7.88
2023-12-04T12:28:36.392Z,8.80
2023-12-04T12:31:04.179Z,5.75
2023-12-04T12:33:30.682Z,10.32
2023-12-04T12:36:03.250Z,9.55
2023-12-04T12:38:31.307Z,8.63
2023-12-04T12:40:57.665Z,8.07
2023-12-04T12:43:24.818Z,10.68
2023-12-04T12:45:51.934Z,8.52
2023-12-04T12:48:18.994Z,8.00
2023-12-04T12:50:48.255Z,8.98
2023-12-04T12:53:15.213Z,8.63
2023-12-04T12:55:42.360Z,8.05
2023-12-04T12:58:10.607Z,9.20
2023-12-04T13:00:37.426Z,8.82
2023-12-04T13:03:04.766Z,11.82
2023-12-04T13:05:31.450Z,7.53
2023-12-04T13:07:58.035Z,9.23
2023-12-04T13:10:25.223Z,8.10
2023-12-04T13:12:52.401Z,9.50
2023-12-04T13:15:20.180Z,8.55
2023-12-04T13:17:47.085Z,10.98
2023-12-04T13:20:13.507Z,9.32
2023-12-04T13:22:40.749Z,9.65
2023-12-04T13:25:07.726Z,8.50
2023-12-04T13:27:35.070Z,11.38
2023-12-04T13:30:01.466Z,34.40
2023-12-04T13:32:27.933Z,30.63
2023-12-04T13:34:54.681Z,12.15
2023-12-04T13:37:21.029Z,15.82
2023-12-04T13:39:47.386Z,16.50
2023-12-04T13:42:15.212Z,12.52
2023-12-04T13:44:41.564Z,13.73
2023-12-04T13:47:08.116Z,8.55
2023-12-04T13:49:34.556Z,8.48
2023-12-04T13:52:00.940Z,8.95
2023-12-04T13:54:27.270Z,9.07
2023-12-04T13:56:53.909Z,12.70
2023-12-04T13:59:22.069Z,9.25
2023-12-04T14:01:50.211Z,9.10
2023-12-04T14:04:16.969Z,9.80
2023-12-04T14:06:43.948Z,10.90
2023-12-04T14:09:10.480Z,11.23
2023-12-04T14:11:40.333Z,7.47
2023-12-04T14:14:06.721Z,7.82
2023-12-04T14:16:33.159Z,10.57
2023-12-04T14:19:00.535Z,8.93
2023-12-04T14:21:27.016Z,9.23
2023-12-04T14:23:53.350Z,10.25
2023-12-04T14:26:19.744Z,9.77
2023-12-04T14:28:46.182Z,10.32
2023-12-04T14:31:12.663Z,12.88
2023-12-04T14:33:42.085Z,13.07
2023-12-04T14:36:10.771Z,12.07
2023-12-04T14:38:37.205Z,10.38
2023-12-04T14:41:03.773Z,8.65
2023-12-04T14:43:30.176Z,9.15
2023-12-04T14:45:56.518Z,10.88
2023-12-04T14:48:22.926Z,10.20
2023-12-04T14:50:49.905Z,8.63
2023-12-04T14:53:16.266Z,10.02
2023-12-04T14:55:43.852Z,6.80
2023-12-04T14:58:10.226Z,8.82
2023-12-04T15:00:36.660Z,8.43
2023-12-04T15:03:03.194Z,8.73
2023-12-04T15:05:29.809Z,8.43
2023-12-04T15:07:56.201Z,10.57
2023-12-04T15:10:23.037Z,7.20
2023-12-04T15:12:49.445Z,9.45
2023-12-04T15:15:15.987Z,10.50
2023-12-04T15:17:42.542Z,9.00
2023-12-04T15:20:09.175Z,12.73
2023-12-04T15:22:35.501Z,8.52
2023-12-04T15:25:01.996Z,9.35
2023-12-04T15:27:28.384Z,10.48
2023-12-04T15:29:55.234Z,10.73
2023-12-04T15:32:21.605Z,9.65
2023-12-04T15:34:47.996Z,8.45
2023-12-04T15:37:14.525Z,10.52
2023-12-04T15:39:41.028Z,7.03
2023-12-04T15:42:07.540Z,11.02
2023-12-04T15:44:34.397Z,7.10
2023-12-04T15:47:01.966Z,10.05
2023-12-04T15:49:28.519Z,7.35
2023-12-04T15:51:55.146Z,8.38
2023-12-04T15:54:21.503Z,8.80
2023-12-04T15:56:47.888Z,11.20
2023-12-04T15:59:14.232Z,9.88
2023-12-04T16:01:41.513Z,11.63
2023-12-04T16:04:10.750Z,8.50
2023-12-04T16:06:37.247Z,10.52
2023-12-04T16:09:04.045Z,8.45
2023-12-04T16:11:30.473Z,11.98
2023-12-04T16:13:56.905Z,8.25
2023-12-04T16:16:23.273Z,12.43
2023-12-04T16:18:49.742Z,12.52
2023-12-04T16:21:16.237Z,9.75
2023-12-04T16:23:42.617Z,10.50
2023-12-04T16:26:08.993Z,10.27
2023-12-04T16:28:35.374Z,10.40
2023-12-04T16:31:01.733Z,10.70
2023-12-04T16:33:28.176Z,10.23
2023-12-04T16:35:55.341Z,12.45
2023-12-04T16:38:21.724Z,10.13
2023-12-04T16:40:48.144Z,12.38
2023-12-04T16:43:14.543Z,16.38
2023-12-04T16:45:41.109Z,13.40
2023-12-04T16:48:07.644Z,10.45
2023-12-04T16:50:34.435Z,9.40
2023-12-04T16:53:00.809Z,11.20
2023-12-04T16:55:27.147Z,8.98
2023-12-04T16:57:53.612Z,9.05
2023-12-04T17:00:20.677Z,15.35
2023-12-04T17:02:47.328Z,10.68
2023-12-04T17:05:13.972Z,9.57
2023-12-04T17:07:40.498Z,10.35
2023-12-04T17:10:07.823Z,9.32
2023-12-04T17:12:34.809Z,10.38
2023-12-04T17:15:01.139Z,9.15
2023-12-04T17:17:27.533Z,10.07
2023-12-04T17:19:53.898Z,11.38
2023-12-04T17:22:20.610Z,11.57
2023-12-04T17:24:47.010Z,9.00
2023-12-04T17:27:13.488Z,16.88
2023-12-04T17:29:40.031Z,12.45
2023-12-04T17:32:06.521Z,11.88
2023-12-04T17:34:33.473Z,11.18
2023-12-04T17:37:00.127Z,9.82
2023-12-04T17:39:26.569Z,10.65
2023-12-04T17:41:53.104Z,11.13
2023-12-04T17:44:19.445Z,11.88
2023-12-04T17:46:46.022Z,13.10
2023-12-04T17:49:12.446Z,11.70
2023-12-04T17:51:39.051Z,11.80
2023-12-04T17:54:05.540Z,16.98
2023-12-04T17:56:32.315Z,15.20
2023-12-04T17:58:58.743Z,14.65
2023-12-04T18:01:25.137Z,12.73
2023-12-04T18:03:51.911Z,16.67
2023-12-04T18:06:31.866Z,10.77
2023-12-04T18:08:58.956Z,14.68
2023-12-04T18:11:25.700Z,15.57
2023-12-04T18:13:52.442Z,14.07
2023-12-04T18:16:18.786Z,17.35
2023-12-04T18:18:46.306Z,15.35
2023-12-04T18:21:13.320Z,14.85
2023-12-04T18:23:39.751Z,10.77
2023-12-04T18:26:06.560Z,12.68
2023-12-04T18:28:33.203Z,15.13
2023-12-04T18:30:59.819Z,18.98
2023-12-04T18:33:27.163Z,26.85
2023-12-04T18:35:55.276Z,22.70
2023-12-04T18:40:56.789Z,19.17
2023-12-04T18:43:23.417Z,27.42
2023-12-04T18:45:50.167Z,25.52
2023-12-04T18:48:21.600Z,27.30
2023-12-04T18:50:49.009Z,18.23
2023-12-04T18:53:15.565Z,19.58
2023-12-04T18:55:42.380Z,13.82
2023-12-04T18:58:08.759Z,15.55
2023-12-04T19:00:35.360Z,18.05
2023-12-04T19:03:02.384Z,13.43
2023-12-04T19:05:28.970Z,23.35
2023-12-04T19:07:55.405Z,16.23
2023-12-04T19:10:21.776Z,17.45
2023-12-04T19:12:48.917Z,16.70
2023-12-04T19:20:09.364Z,17.02
2023-12-04T19:22:35.722Z,15.05
2023-12-04T19:25:02.069Z,17.88
2023-12-04T19:27:28.538Z,15.63
2023-12-04T19:29:55.202Z,13.63
2023-12-04T19:32:22.940Z,16.52
2023-12-04T19:34:49.587Z,16.05
2023-12-04T19:37:15.974Z,17.85
2023-12-04T19:39:42.612Z,19.58
2023-12-04T19:42:09.073Z,19.50
2023-12-04T19:44:36.129Z,18.13
2023-12-04T19:47:02.517Z,20.88
2023-12-04T19:49:29.124Z,14.60
2023-12-04T19:51:55.619Z,16.15
2023-12-04T19:54:22.023Z,12.80
2023-12-04T19:56:48.830Z,16.15
2023-12-04T19:59:15.259Z,16.10
2023-12-04T20:01:41.654Z,14.93
2023-12-04T20:04:08.223Z,17.00
2023-12-04T20:06:34.821Z,14.60
2023-12-04T20:09:01.397Z,12.40
2023-12-04T20:11:27.773Z,17.55
2023-12-04T20:13:55.466Z,17.25
2023-12-04T20:16:23.011Z,16.23
2023-12-04T20:18:49.421Z,14.23
2023-12-04T20:21:16.007Z,16.20
2023-12-04T20:23:42.560Z,14.00
2023-12-04T20:26:09.394Z,14.70
2023-12-04T20:28:35.778Z,14.77
2023-12-04T20:31:02.288Z,13.10
2023-12-04T20:33:28.813Z,11.05
2023-12-04T20:35:55.616Z,13.60
2023-12-04T20:38:22.169Z,17.35
2023-12-04T20:40:49.188Z,14.80
2023-12-04T20:43:16.139Z,11.63
2023-12-04T20:45:42.629Z,14.43
2023-12-04T20:48:09.103Z,16.63
2023-12-04T20:50:36.173Z,15.02
2023-12-04T20:53:03.054Z,14.07
2023-12-04T20:55:31.177Z,13.32
2023-12-04T20:57:57.566Z,13.07
2023-12-04T21:00:24.174Z,14.82
2023-12-04T21:02:51.461Z,11.98
2023-12-04T21:05:19.184Z,11.13
2023-12-04T21:07:45.759Z,13.10
2023-12-04T21:10:12.348Z,14.60
2023-12-04T21:12:38.870Z,16.15
2023-12-04T21:15:06.105Z,15.43
2023-12-04T21:17:34.462Z,12.43
2023-12-04T21:20:00.854Z,12.05
2023-12-04T21:22:27.346Z,12.20
2023-12-04T21:24:54.688Z,12.73
2023-12-04T21:27:21.320Z,12.85
2023-12-04T21:29:47.798Z,11.55
2023-12-04T21:32:14.246Z,13.80
2023-12-04T21:34:40.664Z,13.55
2023-12-04T21:37:07.087Z,12.88
2023-12-04T21:39:34.646Z,13.75
2023-12-04T21:42:01.196Z,15.45
2023-12-04T21:44:27.583Z,12.82
2023-12-04T21:46:53.945Z,9.68
2023-12-04T21:49:20.453Z,11.00
2023-12-04T21:51:46.891Z,13.18
2023-12-04T21:54:13.645Z,10.68
2023-12-04T21:56:40.100Z,12.18
2023-12-04T21:59:15.767Z,13.98
2023-12-04T22:01:46.467Z,15.07
2023-12-04T22:04:13.294Z,13.77
2023-12-04T22:06:39.815Z,12.85
2023-12-04T22:09:06.294Z,13.60
2023-12-04T22:11:32.673Z,16.23
2023-12-04T22:13:59.094Z,12.55
2023-12-04T22:16:26.236Z,15.65
2023-12-04T22:18:52.730Z,13.32
2023-12-04T22:21:19.146Z,12.68
2023-12-04T22:23:45.782Z,12.48
2023-12-04T22:26:13.198Z,14.82
2023-12-04T22:28:39.599Z,12.98
2023-12-04T22:31:06.885Z,18.13
2023-12-04T22:33:33.300Z,14.50
2023-12-04T22:35:59.810Z,12.18
2023-12-04T22:38:26.183Z,12.65
2023-12-04T22:40:52.880Z,16.42
2023-12-04T22:43:19.317Z,11.45
2023-12-04T22:45:45.850Z,12.73
2023-12-04T22:48:12.420Z,14.18
2023-12-04T22:50:38.849Z,15.50
2023-12-04T22:53:09.341Z,18.30
2023-12-04T22:55:36.353Z,14.38
2023-12-04T22:58:03.399Z,12.52
2023-12-04T23:00:29.776Z,16.02
2023-12-04T23:02:56.410Z,15.65
2023-12-04T23:05:22.921Z,11.43
2023-12-04T23:07:49.764Z,13.48
2023-12-04T23:10:16.171Z,14.25
2023-12-04T23:12:42.712Z,13.43
2023-12-04T23:15:10.052Z,17.00
2023-12-04T23:17:36.513Z,16.73
2023-12-04T23:20:03.729Z,16.73
2023-12-04T23:22:30.087Z,14.90
2023-12-04T23:24:56.487Z,13.35
2023-12-04T23:27:32.137Z,14.38
2023-12-04T23:30:07.202Z,13.48
2023-12-04T23:32:34.338Z,12.43
2023-12-04T23:35:00.767Z,14.57
2023-12-04T23:37:27.194Z,13.73
2023-12-04T23:39:53.609Z,14.80
2023-12-04T23:42:20.028Z,16.85
2023-12-04T23:44:46.476Z,16.73
2023-12-04T23:47:12.948Z,14.82
2023-12-04T23:49:39.454Z,13.95
2023-12-04T23:52:06.182Z,16.13
2023-12-04T23:54:32.690Z,13.30
2023-12-04T23:56:59.153Z,14.48
2023-12-04T23:59:25.951Z,13.57
